USTRANSCOM 7656


PHNL
Daniel K Inouye International Airport
Honolulu, Hawaii, US
PGUM
Guam International Airport
Guam, , GU

Activity Log

Date Flight Route Aircraft Duration
No Flights Yet

Route Details

Aircraft Information
Primary: Boeing 757-200SF
Backup: Not Available
Route Data
Distance: 3303nm
Sched. Duration: 7h 45m
Avg. Duration: 0h 00m (-745m)
Times Flown: 0
Recm'd Route: KEOLA2 KATHS HOOPA A450 DEWSS A450 UNZ
Planned Altitude: 34,000ft
Origin Wx: PHNL 260553Z 00000KT 10SM FEW025 FEW040 SCT250 26/21 A2998 RMK AO2 SLP152 60000 T02560211 10283 20256 53027
Dest. Wx: PGUM 260633Z 14005KT 10SM SCT026 SCT035 27/23 A2982 RMK AO2 T02720233
Notes: USTRANSCOM CONTRACT FLIGHT | PAYLOAD RESTRICTED | ETOPS

Financial History
Total Freight: 0lbs
Average Load: 0lbs/flt
Fuel Used: 0lbs
Avg. Fuel Used: 0lbs/flt
Fuel Expense: $0
Avg. Fuel Expense: $0
Avg. Fuel Cost: $0/lbs
Total Gross Income: $0
Pilot Pay: $0
Total Expenses: $0
Total Revenue: $0
Average Revenue: $0